sensor_id;sensor_type;location;lat;lon;timestamp;P1;durP1;ratioP1;P2;durP2;ratioP2
68976;SDS011;56029;52.568;13.588;2023-04-01T00:00:46;8.25;;;3.53;;
68976;SDS011;56029;52.568;13.588;2023-04-01T00:03:15;6.95;;;3.60;;
68976;SDS011;56029;52.568;13.588;2023-04-01T00:05:40;9.63;;;3.90;;
68976;SDS011;56029;52.568;13.588;2023-04-01T00:08:06;7.90;;;3.37;;
68976;SDS011;56029;52.568;13.588;2023-04-01T00:10:31;7.17;;;3.40;;
68976;SDS011;56029;52.568;13.588;2023-04-01T00:12:57;7.78;;;3.17;;
68976;SDS011;56029;52.568;13.588;2023-04-01T00:15:22;6.73;;;3.30;;
68976;SDS011;56029;52.568;13.588;2023-04-01T00:17:48;6.87;;;3.43;;
68976;SDS011;56029;52.568;13.588;2023-04-01T00:20:13;7.70;;;3.63;;
68976;SDS011;56029;52.568;13.588;2023-04-01T00:22:40;9.60;;;4.20;;
68976;SDS011;56029;52.568;13.588;2023-04-01T00:25:06;8.77;;;3.90;;
68976;SDS011;56029;52.568;13.588;2023-04-01T00:27:32;8.30;;;3.60;;
68976;SDS011;56029;52.568;13.588;2023-04-01T00:29:58;8.80;;;3.78;;
68976;SDS011;56029;52.568;13.588;2023-04-01T00:32:23;10.17;;;4.20;;
68976;SDS011;56029;52.568;13.588;2023-04-01T00:34:50;7.90;;;4.00;;
68976;SDS011;56029;52.568;13.588;2023-04-01T00:37:17;6.95;;;3.72;;
68976;SDS011;56029;52.568;13.588;2023-04-01T00:39:42;11.43;;;4.00;;
68976;SDS011;56029;52.568;13.588;2023-04-01T00:42:09;7.78;;;3.65;;
68976;SDS011;56029;52.568;13.588;2023-04-01T00:44:40;9.20;;;4.10;;
68976;SDS011;56029;52.568;13.588;2023-04-01T00:47:06;8.35;;;4.22;;
68976;SDS011;56029;52.568;13.588;2023-04-01T00:49:33;9.13;;;4.40;;
68976;SDS011;56029;52.568;13.588;2023-04-01T00:52:03;11.65;;;4.68;;
68976;SDS011;56029;52.568;13.588;2023-04-01T00:54:30;9.15;;;4.40;;
68976;SDS011;56029;52.568;13.588;2023-04-01T00:56:58;8.95;;;4.25;;
68976;SDS011;56029;52.568;13.588;2023-04-01T00:59:34;9.38;;;4.22;;
68976;SDS011;56029;52.568;13.588;2023-04-01T01:02:05;8.73;;;4.07;;
68976;SDS011;56029;52.568;13.588;2023-04-01T01:04:33;8.10;;;4.05;;
68976;SDS011;56029;52.568;13.588;2023-04-01T01:07:03;9.23;;;4.15;;
68976;SDS011;56029;52.568;13.588;2023-04-01T01:09:51;8.43;;;4.22;;
68976;SDS011;56029;52.568;13.588;2023-04-01T01:13:20;9.50;;;4.63;;
68976;SDS011;56029;52.568;13.588;2023-04-01T01:18:26;7.97;;;4.30;;
68976;SDS011;56029;52.568;13.588;2023-04-01T01:21:08;9.10;;;3.90;;
68976;SDS011;56029;52.568;13.588;2023-04-01T01:23:48;7.97;;;3.70;;
68976;SDS011;56029;52.568;13.588;2023-04-01T01:26:44;8.93;;;3.90;;
68976;SDS011;56029;52.568;13.588;2023-04-01T01:34:34;8.10;;;3.70;;
68976;SDS011;56029;52.568;13.588;2023-04-01T01:37:11;7.40;;;3.38;;
68976;SDS011;56029;52.568;13.588;2023-04-01T01:39:40;8.15;;;4.00;;
68976;SDS011;56029;52.568;13.588;2023-04-01T01:42:09;8.67;;;3.80;;
68976;SDS011;56029;52.568;13.588;2023-04-01T01:44:39;8.20;;;3.80;;
68976;SDS011;56029;52.568;13.588;2023-04-01T01:47:07;8.05;;;3.78;;
68976;SDS011;56029;52.568;13.588;2023-04-01T01:49:33;7.28;;;3.70;;
68976;SDS011;56029;52.568;13.588;2023-04-01T01:52:00;8.20;;;3.67;;
68976;SDS011;56029;52.568;13.588;2023-04-01T01:54:26;7.90;;;3.87;;
68976;SDS011;56029;52.568;13.588;2023-04-01T01:56:52;8.03;;;3.90;;
68976;SDS011;56029;52.568;13.588;2023-04-01T01:59:26;7.22;;;3.60;;
68976;SDS011;56029;52.568;13.588;2023-04-01T02:01:54;7.80;;;3.80;;
68976;SDS011;56029;52.568;13.588;2023-04-01T02:04:21;7.60;;;3.58;;
68976;SDS011;56029;52.568;13.588;2023-04-01T02:06:56;7.32;;;3.35;;
68976;SDS011;56029;52.568;13.588;2023-04-01T02:09:27;9.17;;;3.80;;
68976;SDS011;56029;52.568;13.588;2023-04-01T02:12:03;8.05;;;3.88;;
68976;SDS011;56029;52.568;13.588;2023-04-01T02:14:43;7.60;;;3.42;;
68976;SDS011;56029;52.568;13.588;2023-04-01T02:17:17;8.23;;;3.60;;
68976;SDS011;56029;52.568;13.588;2023-04-01T02:19:50;9.38;;;4.10;;
68976;SDS011;56029;52.568;13.588;2023-04-01T02:22:23;8.67;;;3.77;;
68976;SDS011;56029;52.568;13.588;2023-04-01T02:24:52;7.65;;;3.92;;
68976;SDS011;56029;52.568;13.588;2023-04-01T02:27:21;8.77;;;3.78;;
68976;SDS011;56029;52.568;13.588;2023-04-01T02:29:47;8.60;;;4.10;;
68976;SDS011;56029;52.568;13.588;2023-04-01T02:32:13;9.43;;;3.92;;
68976;SDS011;56029;52.568;13.588;2023-04-01T02:34:40;8.93;;;4.20;;
68976;SDS011;56029;52.568;13.588;2023-04-01T02:37:06;9.40;;;4.05;;
68976;SDS011;56029;52.568;13.588;2023-04-01T02:39:31;10.77;;;4.28;;
68976;SDS011;56029;52.568;13.588;2023-04-01T02:41:57;8.70;;;3.93;;
68976;SDS011;56029;52.568;13.588;2023-04-01T02:44:23;8.02;;;4.43;;
68976;SDS011;56029;52.568;13.588;2023-04-01T02:46:48;10.23;;;4.40;;
68976;SDS011;56029;52.568;13.588;2023-04-01T02:49:14;8.70;;;4.33;;
68976;SDS011;56029;52.568;13.588;2023-04-01T02:51:39;11.00;;;4.50;;
68976;SDS011;56029;52.568;13.588;2023-04-01T02:54:05;11.65;;;4.57;;
68976;SDS011;56029;52.568;13.588;2023-04-01T02:56:30;9.83;;;4.30;;
68976;SDS011;56029;52.568;13.588;2023-04-01T02:58:56;11.10;;;4.85;;
68976;SDS011;56029;52.568;13.588;2023-04-01T03:01:21;11.47;;;5.17;;
68976;SDS011;56029;52.568;13.588;2023-04-01T03:03:47;9.55;;;4.68;;
68976;SDS011;56029;52.568;13.588;2023-04-01T03:06:13;10.63;;;4.70;;
68976;SDS011;56029;52.568;13.588;2023-04-01T03:08:40;11.57;;;4.47;;
68976;SDS011;56029;52.568;13.588;2023-04-01T03:11:06;10.03;;;4.60;;
68976;SDS011;56029;52.568;13.588;2023-04-01T03:13:32;9.95;;;4.80;;
68976;SDS011;56029;52.568;13.588;2023-04-01T03:15:57;9.57;;;4.67;;
68976;SDS011;56029;52.568;13.588;2023-04-01T03:18:23;12.30;;;5.18;;
68976;SDS011;56029;52.568;13.588;2023-04-01T03:20:48;11.87;;;5.17;;
68976;SDS011;56029;52.568;13.588;2023-04-01T03:23:14;10.95;;;5.00;;
68976;SDS011;56029;52.568;13.588;2023-04-01T03:25:42;9.57;;;4.13;;
68976;SDS011;56029;52.568;13.588;2023-04-01T03:28:08;14.45;;;5.13;;
68976;SDS011;56029;52.568;13.588;2023-04-01T03:30:33;12.17;;;5.03;;
68976;SDS011;56029;52.568;13.588;2023-04-01T03:32:59;13.18;;;5.30;;
68976;SDS011;56029;52.568;13.588;2023-04-01T03:35:25;11.68;;;4.82;;
68976;SDS011;56029;52.568;13.588;2023-04-01T03:37:52;10.97;;;5.00;;
68976;SDS011;56029;52.568;13.588;2023-04-01T03:40:18;12.48;;;4.80;;
68976;SDS011;56029;52.568;13.588;2023-04-01T03:42:44;12.23;;;5.05;;
68976;SDS011;56029;52.568;13.588;2023-04-01T03:45:09;11.53;;;4.47;;
68976;SDS011;56029;52.568;13.588;2023-04-01T03:47:37;9.63;;;4.22;;
68976;SDS011;56029;52.568;13.588;2023-04-01T03:50:05;9.90;;;4.55;;
68976;SDS011;56029;52.568;13.588;2023-04-01T03:52:32;9.02;;;4.40;;
68976;SDS011;56029;52.568;13.588;2023-04-01T03:54:58;17.00;;;4.93;;
68976;SDS011;56029;52.568;13.588;2023-04-01T03:57:24;9.45;;;4.30;;
68976;SDS011;56029;52.568;13.588;2023-04-01T03:59:49;9.63;;;4.10;;
68976;SDS011;56029;52.568;13.588;2023-04-01T04:02:15;10.20;;;4.80;;
68976;SDS011;56029;52.568;13.588;2023-04-01T04:04:41;11.87;;;4.47;;
68976;SDS011;56029;52.568;13.588;2023-04-01T04:07:06;11.02;;;5.15;;
68976;SDS011;56029;52.568;13.588;2023-04-01T04:09:32;10.97;;;4.77;;
68976;SDS011;56029;52.568;13.588;2023-04-01T04:11:58;11.07;;;4.97;;
68976;SDS011;56029;52.568;13.588;2023-04-01T04:14:24;10.60;;;4.93;;
68976;SDS011;56029;52.568;13.588;2023-04-01T04:16:50;15.47;;;5.47;;
68976;SDS011;56029;52.568;13.588;2023-04-01T04:19:15;12.13;;;5.20;;
68976;SDS011;56029;52.568;13.588;2023-04-01T04:21:41;11.90;;;4.93;;
68976;SDS011;56029;52.568;13.588;2023-04-01T04:24:07;13.13;;;5.20;;
68976;SDS011;56029;52.568;13.588;2023-04-01T04:26:33;14.90;;;5.80;;
68976;SDS011;56029;52.568;13.588;2023-04-01T04:28:59;12.48;;;5.13;;
68976;SDS011;56029;52.568;13.588;2023-04-01T04:31:25;12.17;;;6.10;;
68976;SDS011;56029;52.568;13.588;2023-04-01T04:33:51;11.70;;;5.20;;
68976;SDS011;56029;52.568;13.588;2023-04-01T04:36:18;13.70;;;5.80;;
68976;SDS011;56029;52.568;13.588;2023-04-01T04:38:44;14.50;;;6.22;;
68976;SDS011;56029;52.568;13.588;2023-04-01T04:41:10;12.88;;;5.82;;
68976;SDS011;56029;52.568;13.588;2023-04-01T04:43:38;14.67;;;5.80;;
68976;SDS011;56029;52.568;13.588;2023-04-01T04:46:06;13.93;;;6.25;;
68976;SDS011;56029;52.568;13.588;2023-04-01T04:48:35;14.70;;;6.63;;
68976;SDS011;56029;52.568;13.588;2023-04-01T04:51:02;12.68;;;6.10;;
68976;SDS011;56029;52.568;13.588;2023-04-01T04:53:28;13.23;;;5.72;;
68976;SDS011;56029;52.568;13.588;2023-04-01T04:55:54;15.20;;;5.97;;
68976;SDS011;56029;52.568;13.588;2023-04-01T04:58:20;16.10;;;6.65;;
68976;SDS011;56029;52.568;13.588;2023-04-01T05:00:46;14.77;;;6.20;;
68976;SDS011;56029;52.568;13.588;2023-04-01T05:03:12;17.75;;;8.18;;
68976;SDS011;56029;52.568;13.588;2023-04-01T05:05:38;30.42;;;16.95;;
68976;SDS011;56029;52.568;13.588;2023-04-01T05:08:05;31.10;;;16.20;;
68976;SDS011;56029;52.568;13.588;2023-04-01T05:10:31;30.40;;;17.00;;
68976;SDS011;56029;52.568;13.588;2023-04-01T05:12:57;43.28;;;23.95;;
68976;SDS011;56029;52.568;13.588;2023-04-01T05:15:23;14.53;;;6.90;;
68976;SDS011;56029;52.568;13.588;2023-04-01T05:17:49;13.45;;;5.90;;
68976;SDS011;56029;52.568;13.588;2023-04-01T05:20:15;17.98;;;7.50;;
68976;SDS011;56029;52.568;13.588;2023-04-01T05:22:41;14.77;;;6.73;;
68976;SDS011;56029;52.568;13.588;2023-04-01T05:25:07;15.60;;;6.57;;
68976;SDS011;56029;52.568;13.588;2023-04-01T05:27:33;19.20;;;8.48;;
68976;SDS011;56029;52.568;13.588;2023-04-01T05:29:58;17.37;;;7.00;;
68976;SDS011;56029;52.568;13.588;2023-04-01T05:32:24;13.93;;;6.17;;
68976;SDS011;56029;52.568;13.588;2023-04-01T05:34:50;15.27;;;6.13;;
68976;SDS011;56029;52.568;13.588;2023-04-01T05:37:16;15.40;;;6.35;;
68976;SDS011;56029;52.568;13.588;2023-04-01T05:39:42;14.30;;;5.90;;
68976;SDS011;56029;52.568;13.588;2023-04-01T05:42:07;14.88;;;6.22;;
68976;SDS011;56029;52.568;13.588;2023-04-01T05:44:33;14.97;;;6.10;;
68976;SDS011;56029;52.568;13.588;2023-04-01T05:46:59;15.57;;;6.35;;
68976;SDS011;56029;52.568;13.588;2023-04-01T05:49:24;17.93;;;9.03;;
68976;SDS011;56029;52.568;13.588;2023-04-01T05:51:50;16.73;;;7.53;;
68976;SDS011;56029;52.568;13.588;2023-04-01T05:54:16;15.48;;;7.43;;
68976;SDS011;56029;52.568;13.588;2023-04-01T05:56:42;19.50;;;9.40;;
68976;SDS011;56029;52.568;13.588;2023-04-01T05:59:09;17.73;;;8.53;;
68976;SDS011;56029;52.568;13.588;2023-04-01T06:01:35;23.80;;;13.38;;
68976;SDS011;56029;52.568;13.588;2023-04-01T06:04:01;23.70;;;12.23;;
68976;SDS011;56029;52.568;13.588;2023-04-01T06:06:27;18.10;;;8.97;;
68976;SDS011;56029;52.568;13.588;2023-04-01T06:08:55;15.35;;;7.40;;
68976;SDS011;56029;52.568;13.588;2023-04-01T06:11:25;17.00;;;7.90;;
68976;SDS011;56029;52.568;13.588;2023-04-01T06:14:01;19.80;;;9.13;;
68976;SDS011;56029;52.568;13.588;2023-04-01T06:19:46;16.10;;;7.43;;
68976;SDS011;56029;52.568;13.588;2023-04-01T06:22:21;16.23;;;6.97;;
68976;SDS011;56029;52.568;13.588;2023-04-01T06:27:59;13.37;;;6.33;;
68976;SDS011;56029;52.568;13.588;2023-04-01T06:33:36;13.30;;;6.43;;
68976;SDS011;56029;52.568;13.588;2023-04-01T06:36:25;13.80;;;5.63;;
68976;SDS011;56029;52.568;13.588;2023-04-01T06:41:57;15.80;;;6.97;;
68976;SDS011;56029;52.568;13.588;2023-04-01T06:50:22;14.77;;;7.03;;
68976;SDS011;56029;52.568;13.588;2023-04-01T06:58:11;15.15;;;6.25;;
68976;SDS011;56029;52.568;13.588;2023-04-01T07:00:44;15.02;;;6.07;;
68976;SDS011;56029;52.568;13.588;2023-04-01T07:03:19;14.63;;;6.00;;
68976;SDS011;56029;52.568;13.588;2023-04-01T07:05:48;15.50;;;6.35;;
68976;SDS011;56029;52.568;13.588;2023-04-01T07:08:21;19.23;;;7.70;;
68976;SDS011;56029;52.568;13.588;2023-04-01T07:13:22;14.10;;;6.60;;
68976;SDS011;56029;52.568;13.588;2023-04-01T07:15:59;13.75;;;6.25;;
68976;SDS011;56029;52.568;13.588;2023-04-01T07:18:34;14.70;;;5.90;;
68976;SDS011;56029;52.568;13.588;2023-04-01T07:21:09;14.20;;;5.90;;
68976;SDS011;56029;52.568;13.588;2023-04-01T07:23:44;15.48;;;6.57;;
68976;SDS011;56029;52.568;13.588;2023-04-01T07:28:46;8.90;;;3.55;;
68976;SDS011;56029;52.568;13.588;2023-04-01T07:33:50;11.75;;;4.38;;
68976;SDS011;56029;52.568;13.588;2023-04-01T07:36:39;14.27;;;5.45;;
68976;SDS011;56029;52.568;13.588;2023-04-01T07:39:30;19.83;;;6.50;;
68976;SDS011;56029;52.568;13.588;2023-04-01T07:42:00;20.67;;;6.73;;
68976;SDS011;56029;52.568;13.588;2023-04-01T07:44:54;22.35;;;8.35;;
68976;SDS011;56029;52.568;13.588;2023-04-01T07:50:29;23.75;;;7.60;;
68976;SDS011;56029;52.568;13.588;2023-04-01T08:01:05;25.95;;;8.70;;
68976;SDS011;56029;52.568;13.588;2023-04-01T08:06:37;21.77;;;7.93;;
68976;SDS011;56029;52.568;13.588;2023-04-01T08:09:26;21.23;;;8.63;;
68976;SDS011;56029;52.568;13.588;2023-04-01T08:17:09;20.48;;;7.95;;
68976;SDS011;56029;52.568;13.588;2023-04-01T08:20:00;20.00;;;7.43;;
68976;SDS011;56029;52.568;13.588;2023-04-01T08:22:45;22.03;;;8.27;;
68976;SDS011;56029;52.568;13.588;2023-04-01T08:25:25;23.95;;;9.30;;
68976;SDS011;56029;52.568;13.588;2023-04-01T08:27:55;20.98;;;8.77;;
68976;SDS011;56029;52.568;13.588;2023-04-01T08:30:30;20.95;;;8.15;;
68976;SDS011;56029;52.568;13.588;2023-04-01T08:33:21;22.27;;;8.20;;
68976;SDS011;56029;52.568;13.588;2023-04-01T08:35:55;22.23;;;8.10;;
68976;SDS011;56029;52.568;13.588;2023-04-01T08:38:26;22.73;;;8.82;;
68976;SDS011;56029;52.568;13.588;2023-04-01T08:41:20;25.92;;;8.77;;
68976;SDS011;56029;52.568;13.588;2023-04-01T08:44:27;21.30;;;8.43;;
68976;SDS011;56029;52.568;13.588;2023-04-01T08:50:35;20.43;;;8.73;;
68976;SDS011;56029;52.568;13.588;2023-04-01T08:53:22;18.42;;;8.30;;
68976;SDS011;56029;52.568;13.588;2023-04-01T08:59:04;17.85;;;7.15;;
68976;SDS011;56029;52.568;13.588;2023-04-01T09:05:06;15.20;;;6.93;;
68976;SDS011;56029;52.568;13.588;2023-04-01T09:08:03;13.63;;;6.38;;
68976;SDS011;56029;52.568;13.588;2023-04-01T09:16:39;18.75;;;8.07;;
68976;SDS011;56029;52.568;13.588;2023-04-01T09:24:52;17.27;;;7.45;;
68976;SDS011;56029;52.568;13.588;2023-04-01T09:27:29;17.10;;;8.07;;
68976;SDS011;56029;52.568;13.588;2023-04-01T09:32:59;18.93;;;7.90;;
68976;SDS011;56029;52.568;13.588;2023-04-01T09:36:02;19.30;;;8.70;;
68976;SDS011;56029;52.568;13.588;2023-04-01T09:38:59;18.48;;;8.40;;
68976;SDS011;56029;52.568;13.588;2023-04-01T09:44:31;18.40;;;8.40;;
68976;SDS011;56029;52.568;13.588;2023-04-01T09:50:00;18.88;;;8.52;;
68976;SDS011;56029;52.568;13.588;2023-04-01T09:52:47;19.45;;;8.95;;
68976;SDS011;56029;52.568;13.588;2023-04-01T10:01:33;19.63;;;8.47;;
68976;SDS011;56029;52.568;13.588;2023-04-01T10:04:25;17.55;;;8.15;;
68976;SDS011;56029;52.568;13.588;2023-04-01T10:27:50;11.77;;;5.35;;
68976;SDS011;56029;52.568;13.588;2023-04-01T10:36:31;11.27;;;5.07;;
68976;SDS011;56029;52.568;13.588;2023-04-01T10:45:13;11.33;;;4.80;;
68976;SDS011;56029;52.568;13.588;2023-04-01T10:59:23;10.33;;;4.43;;
68976;SDS011;56029;52.568;13.588;2023-04-01T11:20:00;9.80;;;4.53;;
68976;SDS011;56029;52.568;13.588;2023-04-01T11:22:57;9.68;;;4.30;;
68976;SDS011;56029;52.568;13.588;2023-04-01T11:25:46;8.52;;;4.05;;
68976;SDS011;56029;52.568;13.588;2023-04-01T11:34:11;9.63;;;4.60;;
68976;SDS011;56029;52.568;13.588;2023-04-01T11:36:55;10.77;;;4.60;;
68976;SDS011;56029;52.568;13.588;2023-04-01T11:39:33;9.63;;;4.40;;
68976;SDS011;56029;52.568;13.588;2023-04-01T11:42:11;10.90;;;4.90;;
68976;SDS011;56029;52.568;13.588;2023-04-01T11:44:58;10.10;;;5.03;;
68976;SDS011;56029;52.568;13.588;2023-04-01T11:53:18;13.55;;;5.82;;
68976;SDS011;56029;52.568;13.588;2023-04-01T11:55:53;11.63;;;5.17;;
68976;SDS011;56029;52.568;13.588;2023-04-01T12:01:48;12.38;;;5.93;;
68976;SDS011;56029;52.568;13.588;2023-04-01T12:04:24;12.82;;;6.13;;
68976;SDS011;56029;52.568;13.588;2023-04-01T12:07:21;11.82;;;5.75;;
68976;SDS011;56029;52.568;13.588;2023-04-01T12:10:20;10.83;;;5.27;;
68976;SDS011;56029;52.568;13.588;2023-04-01T12:18:53;14.10;;;6.60;;
68976;SDS011;56029;52.568;13.588;2023-04-01T12:21:36;12.05;;;5.97;;
68976;SDS011;56029;52.568;13.588;2023-04-01T12:30:04;9.68;;;4.93;;
68976;SDS011;56029;52.568;13.588;2023-04-01T12:32:41;10.40;;;4.93;;
68976;SDS011;56029;52.568;13.588;2023-04-01T12:35:17;8.98;;;4.32;;
68976;SDS011;56029;52.568;13.588;2023-04-01T12:40:56;16.58;;;8.07;;
68976;SDS011;56029;52.568;13.588;2023-04-01T12:46:31;17.88;;;8.88;;
68976;SDS011;56029;52.568;13.588;2023-04-01T13:05:59;13.83;;;5.90;;
68976;SDS011;56029;52.568;13.588;2023-04-01T13:17:36;14.02;;;6.78;;
68976;SDS011;56029;52.568;13.588;2023-04-01T13:20:16;13.10;;;5.87;;
68976;SDS011;56029;52.568;13.588;2023-04-01T13:23:11;11.40;;;5.38;;
68976;SDS011;56029;52.568;13.588;2023-04-01T13:28:37;15.90;;;7.60;;
68976;SDS011;56029;52.568;13.588;2023-04-01T13:31:10;16.95;;;8.85;;
68976;SDS011;56029;52.568;13.588;2023-04-01T13:34:06;13.80;;;6.50;;
68976;SDS011;56029;52.568;13.588;2023-04-01T13:36:45;15.63;;;7.20;;
68976;SDS011;56029;52.568;13.588;2023-04-01T13:39:41;13.02;;;6.20;;
68976;SDS011;56029;52.568;13.588;2023-04-01T13:47:47;11.37;;;5.50;;
68976;SDS011;56029;52.568;13.588;2023-04-01T13:50:46;12.93;;;6.28;;
68976;SDS011;56029;52.568;13.588;2023-04-01T13:53:25;19.50;;;9.60;;
68976;SDS011;56029;52.568;13.588;2023-04-01T13:56:15;17.40;;;8.25;;
68976;SDS011;56029;52.568;13.588;2023-04-01T14:01:20;15.27;;;7.07;;
68976;SDS011;56029;52.568;13.588;2023-04-01T14:06:54;13.00;;;6.63;;
68976;SDS011;56029;52.568;13.588;2023-04-01T14:10:28;14.50;;;7.13;;
68976;SDS011;56029;52.568;13.588;2023-04-01T14:12:31;13.50;;;6.45;;
68976;SDS011;56029;52.568;13.588;2023-04-01T14:21:07;16.35;;;8.00;;
68976;SDS011;56029;52.568;13.588;2023-04-01T14:29:45;12.40;;;5.90;;
68976;SDS011;56029;52.568;13.588;2023-04-01T14:32:39;13.30;;;6.10;;
68976;SDS011;56029;52.568;13.588;2023-04-01T14:35:52;13.13;;;6.60;;
68976;SDS011;56029;52.568;13.588;2023-04-01T14:38:30;13.32;;;6.10;;
68976;SDS011;56029;52.568;13.588;2023-04-01T14:41:15;12.65;;;5.90;;
68976;SDS011;56029;52.568;13.588;2023-04-01T14:49:42;10.00;;;4.97;;
68976;SDS011;56029;52.568;13.588;2023-04-01T14:52:14;11.05;;;5.10;;
68976;SDS011;56029;52.568;13.588;2023-04-01T14:54:46;11.35;;;5.57;;
68976;SDS011;56029;52.568;13.588;2023-04-01T14:57:23;13.03;;;6.17;;
68976;SDS011;56029;52.568;13.588;2023-04-01T14:59:54;16.33;;;6.18;;
68976;SDS011;56029;52.568;13.588;2023-04-01T15:04:58;13.33;;;6.40;;
68976;SDS011;56029;52.568;13.588;2023-04-01T15:07:55;14.77;;;6.95;;
68976;SDS011;56029;52.568;13.588;2023-04-01T15:13:12;13.50;;;6.30;;
68976;SDS011;56029;52.568;13.588;2023-04-01T15:18:42;12.57;;;6.80;;
68976;SDS011;56029;52.568;13.588;2023-04-01T15:24:07;14.65;;;6.78;;
68976;SDS011;56029;52.568;13.588;2023-04-01T15:29:54;12.23;;;5.80;;
68976;SDS011;56029;52.568;13.588;2023-04-01T15:35:14;13.03;;;6.00;;
68976;SDS011;56029;52.568;13.588;2023-04-01T15:37:54;12.40;;;6.15;;
68976;SDS011;56029;52.568;13.588;2023-04-01T15:40:24;13.82;;;6.22;;
68976;SDS011;56029;52.568;13.588;2023-04-01T15:45:48;12.73;;;6.15;;
68976;SDS011;56029;52.568;13.588;2023-04-01T15:48:35;14.47;;;6.60;;
68976;SDS011;56029;52.568;13.588;2023-04-01T15:51:43;15.73;;;7.63;;
68976;SDS011;56029;52.568;13.588;2023-04-01T15:54:32;14.30;;;7.40;;
68976;SDS011;56029;52.568;13.588;2023-04-01T16:00:18;14.20;;;6.85;;
68976;SDS011;56029;52.568;13.588;2023-04-01T16:17:33;13.27;;;6.87;;
68976;SDS011;56029;52.568;13.588;2023-04-01T16:20:20;12.35;;;6.90;;
68976;SDS011;56029;52.568;13.588;2023-04-01T16:25:38;13.50;;;6.70;;
68976;SDS011;56029;52.568;13.588;2023-04-01T16:28:21;14.32;;;7.00;;
68976;SDS011;56029;52.568;13.588;2023-04-01T16:31:14;12.70;;;6.40;;
68976;SDS011;56029;52.568;13.588;2023-04-01T16:33:52;12.45;;;6.45;;
68976;SDS011;56029;52.568;13.588;2023-04-01T16:36:32;13.00;;;7.30;;
68976;SDS011;56029;52.568;13.588;2023-04-01T16:44:31;12.07;;;6.37;;
68976;SDS011;56029;52.568;13.588;2023-04-01T16:47:14;13.15;;;6.82;;
68976;SDS011;56029;52.568;13.588;2023-04-01T16:49:51;16.23;;;7.67;;
68976;SDS011;56029;52.568;13.588;2023-04-01T16:52:40;13.75;;;6.97;;
68976;SDS011;56029;52.568;13.588;2023-04-01T16:55:16;15.63;;;7.65;;
68976;SDS011;56029;52.568;13.588;2023-04-01T16:57:48;14.90;;;7.70;;
68976;SDS011;56029;52.568;13.588;2023-04-01T17:02:47;14.23;;;7.50;;
68976;SDS011;56029;52.568;13.588;2023-04-01T17:05:17;15.93;;;8.07;;
68976;SDS011;56029;52.568;13.588;2023-04-01T17:10:34;15.13;;;7.70;;
68976;SDS011;56029;52.568;13.588;2023-04-01T17:19:08;14.63;;;7.63;;
68976;SDS011;56029;52.568;13.588;2023-04-01T17:22:07;17.27;;;8.20;;
68976;SDS011;56029;52.568;13.588;2023-04-01T17:27:47;17.75;;;8.93;;
68976;SDS011;56029;52.568;13.588;2023-04-01T17:39:27;17.40;;;8.20;;
68976;SDS011;56029;52.568;13.588;2023-04-01T17:49:49;15.65;;;7.15;;
68976;SDS011;56029;52.568;13.588;2023-04-01T17:52:30;14.10;;;6.70;;
68976;SDS011;56029;52.568;13.588;2023-04-01T18:00:46;11.68;;;6.82;;
68976;SDS011;56029;52.568;13.588;2023-04-01T18:03:37;13.70;;;6.93;;
68976;SDS011;56029;52.568;13.588;2023-04-01T18:06:23;11.90;;;6.13;;
68976;SDS011;56029;52.568;13.588;2023-04-01T18:14:58;12.68;;;6.30;;
68976;SDS011;56029;52.568;13.588;2023-04-01T18:17:25;14.63;;;6.68;;
68976;SDS011;56029;52.568;13.588;2023-04-01T18:20:02;12.40;;;7.07;;
68976;SDS011;56029;52.568;13.588;2023-04-01T18:30:51;12.88;;;6.22;;
68976;SDS011;56029;52.568;13.588;2023-04-01T18:33:41;12.87;;;6.43;;
68976;SDS011;56029;52.568;13.588;2023-04-01T18:36:36;11.80;;;5.68;;
68976;SDS011;56029;52.568;13.588;2023-04-01T18:39:15;12.43;;;5.97;;
68976;SDS011;56029;52.568;13.588;2023-04-01T18:41:51;13.10;;;5.80;;
68976;SDS011;56029;52.568;13.588;2023-04-01T18:47:27;13.37;;;6.63;;
68976;SDS011;56029;52.568;13.588;2023-04-01T18:56:11;13.98;;;7.25;;
68976;SDS011;56029;52.568;13.588;2023-04-01T18:58:48;14.45;;;7.55;;
68976;SDS011;56029;52.568;13.588;2023-04-01T19:04:15;15.57;;;8.15;;
68976;SDS011;56029;52.568;13.588;2023-04-01T19:06:56;16.15;;;8.43;;
68976;SDS011;56029;52.568;13.588;2023-04-01T19:09:26;18.67;;;8.52;;
68976;SDS011;56029;52.568;13.588;2023-04-01T19:17:38;16.17;;;7.32;;
68976;SDS011;56029;52.568;13.588;2023-04-01T19:20:20;17.73;;;8.15;;
68976;SDS011;56029;52.568;13.588;2023-04-01T19:25:23;16.77;;;7.25;;
68976;SDS011;56029;52.568;13.588;2023-04-01T19:34:03;15.32;;;7.50;;
68976;SDS011;56029;52.568;13.588;2023-04-01T19:36:54;16.17;;;7.22;;
68976;SDS011;56029;52.568;13.588;2023-04-01T19:39:27;16.55;;;7.70;;
68976;SDS011;56029;52.568;13.588;2023-04-01T19:42:41;20.55;;;8.07;;
68976;SDS011;56029;52.568;13.588;2023-04-01T19:45:03;18.07;;;8.40;;
68976;SDS011;56029;52.568;13.588;2023-04-01T19:50:39;16.63;;;8.10;;
68976;SDS011;56029;52.568;13.588;2023-04-01T19:56:07;13.90;;;6.75;;
68976;SDS011;56029;52.568;13.588;2023-04-01T19:59:01;15.27;;;6.93;;
68976;SDS011;56029;52.568;13.588;2023-04-01T20:01:48;13.93;;;6.35;;
68976;SDS011;56029;52.568;13.588;2023-04-01T20:10:10;15.20;;;6.28;;
68976;SDS011;56029;52.568;13.588;2023-04-01T20:12:44;16.17;;;7.33;;
68976;SDS011;56029;52.568;13.588;2023-04-01T20:18:23;18.65;;;7.50;;
68976;SDS011;56029;52.568;13.588;2023-04-01T20:21:02;18.92;;;8.68;;
68976;SDS011;56029;52.568;13.588;2023-04-01T20:23:38;18.92;;;8.73;;
68976;SDS011;56029;52.568;13.588;2023-04-01T20:26:08;17.40;;;8.07;;
68976;SDS011;56029;52.568;13.588;2023-04-01T20:28:47;15.98;;;7.40;;
68976;SDS011;56029;52.568;13.588;2023-04-01T20:31:31;15.00;;;7.65;;
68976;SDS011;56029;52.568;13.588;2023-04-01T20:45:10;13.65;;;6.13;;
68976;SDS011;56029;52.568;13.588;2023-04-01T20:50:52;13.20;;;6.72;;
68976;SDS011;56029;52.568;13.588;2023-04-01T20:56:27;13.55;;;5.80;;
68976;SDS011;56029;52.568;13.588;2023-04-01T21:02:05;13.45;;;5.38;;
68976;SDS011;56029;52.568;13.588;2023-04-01T21:07:54;12.23;;;5.50;;
68976;SDS011;56029;52.568;13.588;2023-04-01T21:10:26;10.80;;;5.45;;
68976;SDS011;56029;52.568;13.588;2023-04-01T21:15:50;11.55;;;5.90;;
68976;SDS011;56029;52.568;13.588;2023-04-01T21:18:45;9.98;;;5.20;;
68976;SDS011;56029;52.568;13.588;2023-04-01T21:26:40;13.13;;;5.68;;
68976;SDS011;56029;52.568;13.588;2023-04-01T21:32:19;11.18;;;4.88;;
68976;SDS011;56029;52.568;13.588;2023-04-01T21:38:21;10.77;;;4.68;;
68976;SDS011;56029;52.568;13.588;2023-04-01T21:41:00;9.85;;;5.22;;
68976;SDS011;56029;52.568;13.588;2023-04-01T22:00:32;11.02;;;5.43;;
68976;SDS011;56029;52.568;13.588;2023-04-01T22:03:16;11.53;;;5.37;;
68976;SDS011;56029;52.568;13.588;2023-04-01T22:06:14;9.63;;;5.07;;
68976;SDS011;56029;52.568;13.588;2023-04-01T22:08:50;8.77;;;4.47;;
68976;SDS011;56029;52.568;13.588;2023-04-01T22:14:36;9.47;;;4.63;;
68976;SDS011;56029;52.568;13.588;2023-04-01T22:16:57;10.43;;;4.30;;
68976;SDS011;56029;52.568;13.588;2023-04-01T22:19:32;13.45;;;4.55;;
68976;SDS011;56029;52.568;13.588;2023-04-01T22:22:13;9.98;;;4.90;;
68976;SDS011;56029;52.568;13.588;2023-04-01T22:27:27;8.55;;;4.13;;
68976;SDS011;56029;52.568;13.588;2023-04-01T22:30:00;11.95;;;5.18;;
68976;SDS011;56029;52.568;13.588;2023-04-01T22:32:29;9.73;;;4.28;;